createdAt,value
2022-10-25T00:00:12.800Z,14.43
2022-10-25T00:03:09.367Z,14.45
2022-10-25T00:05:46.076Z,14.45
2022-10-25T00:08:21.959Z,14.45
2022-10-25T00:10:57.896Z,14.45
2022-10-25T00:13:33.941Z,14.44
2022-10-25T00:16:16.941Z,14.45
2022-10-25T00:18:52.873Z,14.45
2022-10-25T00:21:29.366Z,14.46
2022-10-25T00:24:05.604Z,14.46
2022-10-25T00:26:42.342Z,14.46
2022-10-25T00:29:19.380Z,14.46
2022-10-25T00:31:55.395Z,14.45
2022-10-25T00:34:32.223Z,14.44
2022-10-25T00:37:08.125Z,14.44
2022-10-25T00:39:44.101Z,14.44
2022-10-25T00:42:25.872Z,14.45
2022-10-25T00:45:03.789Z,14.43
2022-10-25T00:47:57.464Z,14.43
2022-10-25T00:50:49.443Z,14.41
2022-10-25T00:53:34.010Z,14.40
2022-10-25T00:56:20.737Z,14.40
2022-10-25T00:59:03.320Z,14.39
2022-10-25T01:01:39.842Z,14.41
2022-10-25T01:04:20.631Z,14.42
2022-10-25T01:06:57.436Z,14.42
2022-10-25T01:09:37.852Z,14.44
2022-10-25T01:12:13.614Z,14.45
2022-10-25T01:14:53.991Z,14.46
2022-10-25T01:17:46.495Z,14.47
2022-10-25T01:21:39.350Z,14.47
2022-10-25T01:24:46.262Z,14.45
2022-10-25T01:28:10.488Z,14.45
2022-10-25T01:31:22.206Z,14.45
2022-10-25T01:34:08.337Z,14.43
2022-10-25T01:36:59.087Z,14.41
2022-10-25T01:39:42.547Z,14.41
2022-10-25T01:42:30.338Z,14.39
2022-10-25T01:45:17.050Z,14.42
2022-10-25T01:48:00.679Z,14.43
2022-10-25T01:50:41.173Z,14.45
2022-10-25T01:53:17.230Z,14.45
2022-10-25T01:55:59.135Z,14.46
2022-10-25T01:58:47.314Z,14.48
2022-10-25T02:01:50.939Z,14.49
2022-10-25T02:04:47.831Z,14.49
2022-10-25T02:07:34.301Z,14.49
2022-10-25T02:10:17.660Z,14.50
2022-10-25T02:13:04.134Z,14.50
2022-10-25T02:15:46.705Z,14.49
2022-10-25T02:21:13.700Z,14.48
2022-10-25T02:23:52.915Z,14.45
2022-10-25T02:26:29.900Z,14.43
2022-10-25T02:29:08.202Z,14.39
2022-10-25T02:31:44.618Z,14.36
2022-10-25T02:34:20.765Z,14.32
2022-10-25T02:36:57.071Z,14.28
2022-10-25T02:39:34.647Z,14.25
2022-10-25T02:42:11.092Z,14.23
2022-10-25T02:44:47.340Z,14.21
2022-10-25T02:47:23.155Z,14.19
2022-10-25T02:49:58.861Z,14.15
2022-10-25T02:52:34.764Z,14.13
2022-10-25T02:55:12.795Z,14.10
2022-10-25T02:57:48.707Z,14.10
2022-10-25T03:00:24.881Z,14.09
2022-10-25T03:03:00.706Z,14.07
2022-10-25T03:05:36.668Z,14.06
2022-10-25T03:08:12.487Z,14.05
2022-10-25T03:10:48.483Z,14.02
2022-10-25T03:13:24.922Z,14.02
2022-10-25T03:16:00.939Z,13.99
2022-10-25T03:18:36.829Z,13.96
2022-10-25T03:21:12.713Z,13.92
2022-10-25T03:23:48.390Z,13.86
2022-10-25T03:26:24.287Z,13.82
2022-10-25T03:29:00.231Z,13.76
2022-10-25T03:31:36.093Z,13.70
2022-10-25T03:34:11.826Z,13.66
2022-10-25T03:36:47.516Z,13.58
2022-10-25T03:39:23.225Z,13.54
2022-10-25T03:41:58.935Z,13.48
2022-10-25T03:44:34.664Z,13.44
2022-10-25T03:47:10.570Z,13.39
2022-10-25T03:49:46.628Z,13.34
2022-10-25T03:52:22.429Z,13.29
2022-10-25T03:54:58.199Z,13.23
2022-10-25T03:57:34.297Z,13.17
2022-10-25T04:00:13.126Z,13.14
2022-10-25T04:02:49.016Z,13.13
2022-10-25T04:05:25.192Z,13.12
2022-10-25T04:08:01.209Z,13.11
2022-10-25T04:10:37.144Z,13.12
2022-10-25T04:13:13.108Z,13.14
2022-10-25T04:15:48.860Z,13.15
2022-10-25T04:18:25.034Z,13.18
2022-10-25T04:21:02.124Z,13.21
2022-10-25T04:23:38.059Z,13.25
2022-10-25T04:26:17.511Z,13.29
2022-10-25T04:28:57.732Z,13.34
2022-10-25T04:31:34.655Z,13.36
2022-10-25T04:34:10.686Z,13.41
2022-10-25T04:36:46.503Z,13.43
2022-10-25T04:39:22.379Z,13.46
2022-10-25T04:41:58.186Z,13.48
2022-10-25T04:44:34.315Z,13.48
2022-10-25T04:47:10.270Z,13.49
2022-10-25T04:49:46.225Z,13.51
2022-10-25T04:52:22.272Z,13.50
2022-10-25T04:54:58.354Z,13.49
2022-10-25T04:57:34.157Z,13.47
2022-10-25T05:00:13.244Z,13.46
2022-10-25T05:02:49.296Z,13.44
2022-10-25T05:05:27.411Z,13.42
2022-10-25T05:08:03.137Z,13.41
2022-10-25T05:10:38.952Z,13.40
2022-10-25T05:13:14.935Z,13.39
2022-10-25T05:15:58.822Z,13.37
2022-10-25T05:18:35.958Z,13.37
2022-10-25T05:21:13.662Z,13.36
2022-10-25T05:23:49.681Z,13.36
2022-10-25T05:26:26.158Z,13.36
2022-10-25T05:29:03.612Z,13.37
2022-10-25T05:31:42.637Z,13.38
2022-10-25T05:34:18.435Z,13.40
2022-10-25T05:36:54.392Z,13.40
2022-10-25T05:39:30.078Z,13.39
2022-10-25T05:42:07.048Z,13.38
2022-10-25T05:44:42.814Z,13.38
2022-10-25T05:47:19.321Z,13.39
2022-10-25T05:49:55.096Z,13.37
2022-10-25T05:52:30.914Z,13.37
2022-10-25T05:55:07.363Z,13.34
2022-10-25T05:57:43.123Z,13.29
2022-10-25T06:00:20.911Z,13.27
2022-10-25T06:02:56.804Z,13.24
2022-10-25T06:05:35.440Z,13.23
2022-10-25T06:08:11.271Z,13.24
2022-10-25T06:13:23.843Z,13.29
2022-10-25T06:15:59.713Z,13.34
2022-10-25T06:18:36.649Z,13.39
2022-10-25T06:21:16.584Z,13.47
2022-10-25T06:23:54.204Z,13.59
2022-10-25T06:26:32.583Z,13.71
2022-10-25T06:29:08.957Z,13.84
2022-10-25T06:31:45.175Z,13.93
2022-10-25T06:34:21.059Z,14.01
2022-10-25T06:36:56.759Z,14.10
2022-10-25T06:39:32.497Z,14.17
2022-10-25T06:42:08.800Z,14.19
2022-10-25T06:44:44.744Z,14.19
2022-10-25T06:47:20.601Z,14.19
2022-10-25T06:49:56.509Z,14.16
2022-10-25T06:52:33.841Z,14.13
2022-10-25T06:55:11.180Z,14.15
2022-10-25T06:57:47.128Z,14.38
2022-10-25T07:00:24.086Z,14.76
2022-10-25T07:03:03.400Z,15.10
2022-10-25T07:05:39.165Z,15.22
2022-10-25T07:08:15.008Z,15.20
2022-10-25T07:10:57.645Z,15.19
2022-10-25T07:13:35.875Z,15.19
2022-10-25T07:16:15.268Z,15.12
2022-10-25T07:18:53.457Z,15.07
2022-10-25T07:21:30.522Z,15.07
2022-10-25T07:24:08.934Z,15.10
2022-10-25T07:26:45.132Z,15.16
2022-10-25T07:29:20.982Z,15.25
2022-10-25T07:31:56.747Z,15.37
2022-10-25T07:34:32.879Z,15.45
2022-10-25T07:37:08.724Z,15.52
2022-10-25T07:39:44.897Z,15.56
2022-10-25T07:42:20.744Z,15.59
2022-10-25T07:44:56.589Z,15.65
2022-10-25T07:47:32.417Z,15.77
2022-10-25T07:50:09.508Z,16.00
2022-10-25T07:52:45.358Z,16.29
2022-10-25T07:55:21.113Z,16.63
2022-10-25T07:58:02.782Z,17.00
2022-10-25T08:00:37.777Z,17.39
2022-10-25T08:03:15.232Z,17.71
2022-10-25T08:05:52.238Z,17.98
2022-10-25T08:08:28.856Z,18.22
2022-10-25T08:11:08.361Z,18.43
2022-10-25T08:13:44.635Z,18.70
2022-10-25T08:16:20.338Z,18.95
2022-10-25T08:18:56.743Z,19.16
2022-10-25T08:21:32.490Z,19.27
2022-10-25T08:24:09.601Z,19.50
2022-10-25T08:26:45.301Z,19.65
2022-10-25T08:29:21.064Z,19.79
2022-10-25T08:31:56.769Z,19.76
2022-10-25T08:34:33.332Z,19.79
2022-10-25T08:37:11.563Z,19.88
2022-10-25T08:39:49.973Z,19.99
2022-10-25T08:42:38.078Z,20.06
2022-10-25T08:45:26.075Z,20.12
2022-10-25T08:48:03.756Z,20.14
2022-10-25T08:50:46.204Z,20.14
2022-10-25T08:53:29.024Z,20.18
2022-10-25T08:56:16.296Z,20.18
2022-10-25T08:58:58.358Z,20.22
2022-10-25T09:01:44.775Z,20.24
2022-10-25T09:04:21.545Z,20.25
2022-10-25T09:07:14.606Z,20.19
2022-10-25T09:10:05.158Z,20.17
2022-10-25T09:12:54.674Z,20.04
2022-10-25T09:15:53.630Z,20.03
2022-10-25T09:18:52.111Z,19.97
2022-10-25T09:21:40.534Z,19.85
2022-10-25T09:24:34.856Z,19.79
2022-10-25T09:27:20.844Z,19.77
2022-10-25T09:30:05.199Z,19.86
2022-10-25T09:32:52.140Z,19.97
2022-10-25T09:35:33.949Z,19.97
2022-10-25T09:38:21.689Z,19.86
2022-10-25T09:41:07.212Z,19.59
2022-10-25T09:43:50.303Z,19.33
2022-10-25T09:46:36.785Z,19.18
2022-10-25T09:49:30.673Z,18.98
2022-10-25T09:52:19.786Z,18.81
2022-10-25T09:55:07.054Z,18.62
2022-10-25T09:57:43.348Z,18.52
2022-10-25T10:00:20.868Z,18.41
2022-10-25T10:02:56.928Z,18.29
2022-10-25T10:05:33.797Z,18.12
2022-10-25T10:08:11.194Z,17.97
2022-10-25T10:10:49.365Z,17.81
2022-10-25T10:13:36.542Z,17.64
2022-10-25T10:16:28.072Z,17.44
2022-10-25T10:19:21.258Z,17.27
2022-10-25T10:22:02.378Z,17.09
2022-10-25T10:24:42.328Z,16.95
2022-10-25T10:27:29.803Z,16.82
2022-10-25T10:30:20.510Z,16.65
2022-10-25T10:33:01.172Z,16.53
2022-10-25T10:35:39.336Z,16.44
2022-10-25T10:38:30.539Z,16.37
2022-10-25T10:41:28.056Z,16.33
2022-10-25T10:44:20.409Z,16.30
2022-10-25T10:46:57.640Z,16.27
2022-10-25T10:49:43.098Z,16.28
2022-10-25T10:52:43.600Z,16.28
2022-10-25T10:55:31.018Z,16.32
2022-10-25T10:58:18.895Z,16.34
2022-10-25T11:01:01.329Z,16.35
2022-10-25T11:04:03.391Z,16.36
2022-10-25T11:06:37.935Z,16.38
2022-10-25T11:09:27.353Z,16.43
2022-10-25T11:12:15.964Z,16.50
2022-10-25T11:14:54.070Z,16.58
2022-10-25T11:17:38.315Z,16.68
2022-10-25T11:20:33.108Z,16.76
2022-10-25T11:23:17.577Z,16.86
2022-10-25T11:26:05.824Z,16.93
2022-10-25T11:28:59.143Z,17.01
2022-10-25T11:31:51.821Z,17.07
2022-10-25T11:34:41.596Z,17.12
2022-10-25T11:37:32.254Z,17.19
2022-10-25T11:40:17.468Z,17.24
2022-10-25T11:43:25.616Z,17.36
2022-10-25T11:46:10.691Z,17.42
2022-10-25T11:49:09.591Z,17.39
2022-10-25T11:52:10.202Z,17.28
2022-10-25T11:54:54.074Z,17.27
2022-10-25T11:57:45.760Z,17.30
2022-10-25T12:00:28.669Z,17.34
2022-10-25T12:03:40.732Z,17.38
2022-10-25T12:06:24.578Z,17.40
2022-10-25T12:09:17.362Z,17.51
2022-10-25T12:11:59.939Z,17.63
2022-10-25T12:14:43.417Z,17.64
2022-10-25T12:17:29.371Z,17.57
2022-10-25T12:20:16.934Z,17.50
2022-10-25T12:22:58.006Z,17.50
2022-10-25T12:25:40.393Z,17.57
2022-10-25T12:28:30.323Z,17.61
2022-10-25T12:31:27.266Z,17.64
2022-10-25T12:34:13.166Z,17.70
2022-10-25T12:36:54.069Z,17.76
2022-10-25T12:39:40.091Z,17.74
2022-10-25T12:42:24.803Z,17.79
2022-10-25T12:46:05.390Z,17.81
2022-10-25T12:49:19.056Z,17.83
2022-10-25T12:52:20.423Z,17.90
2022-10-25T12:55:49.250Z,17.92
2022-10-25T12:58:50.306Z,18.02
2022-10-25T13:01:57.258Z,18.12
2022-10-25T13:05:10.086Z,18.10
2022-10-25T13:07:48.737Z,18.02
2022-10-25T13:10:27.133Z,17.93
2022-10-25T13:13:17.228Z,17.88
2022-10-25T13:15:57.193Z,17.78
2022-10-25T13:18:47.224Z,17.74
2022-10-25T13:22:22.362Z,17.70
2022-10-25T13:24:58.942Z,17.65
2022-10-25T13:27:36.603Z,17.61
2022-10-25T13:30:33.047Z,17.52
2022-10-25T13:33:36.356Z,17.45
2022-10-25T13:36:12.365Z,17.43
2022-10-25T13:38:48.388Z,17.40
2022-10-25T13:41:26.976Z,17.36
2022-10-25T13:44:06.325Z,17.27
2022-10-25T13:46:44.401Z,17.19
2022-10-25T13:49:36.298Z,17.11
2022-10-25T13:52:30.605Z,17.04
2022-10-25T13:55:15.435Z,16.91
2022-10-25T13:58:00.292Z,16.80
2022-10-25T14:00:49.704Z,16.71
2022-10-25T14:03:51.153Z,16.62
2022-10-25T14:06:33.447Z,16.54
2022-10-25T14:09:26.613Z,16.47
2022-10-25T14:12:20.413Z,16.40
2022-10-25T14:15:10.161Z,16.35
2022-10-25T14:17:48.408Z,16.30
2022-10-25T14:20:32.261Z,16.26
2022-10-25T14:23:19.628Z,16.25
2022-10-25T14:26:02.555Z,16.26
2022-10-25T14:28:39.027Z,16.29
2022-10-25T14:31:22.345Z,16.34
2022-10-25T14:34:00.187Z,16.38
2022-10-25T14:36:37.926Z,16.40
2022-10-25T14:39:24.212Z,16.41
2022-10-25T14:42:03.184Z,16.44
2022-10-25T14:44:54.960Z,16.44
2022-10-25T14:47:36.572Z,16.44
2022-10-25T14:50:19.100Z,16.44
2022-10-25T14:52:58.002Z,16.45
2022-10-25T14:55:37.262Z,16.41
2022-10-25T14:58:14.690Z,16.37
2022-10-25T15:01:05.091Z,16.30
2022-10-25T15:03:46.317Z,16.24
2022-10-25T15:06:27.909Z,16.17
2022-10-25T15:09:41.891Z,16.10
2022-10-25T15:12:24.792Z,16.03
2022-10-25T15:15:20.688Z,15.99
2022-10-25T15:17:57.190Z,15.94
2022-10-25T15:20:37.589Z,15.92
2022-10-25T15:23:24.036Z,15.90
2022-10-25T15:25:59.821Z,15.86
2022-10-25T15:28:54.506Z,15.83
2022-10-25T15:31:33.441Z,15.79
2022-10-25T15:34:21.402Z,15.77
2022-10-25T15:36:57.372Z,15.73
2022-10-25T15:39:34.060Z,15.71
2022-10-25T15:42:12.879Z,15.69
2022-10-25T15:44:50.645Z,15.68
2022-10-25T15:47:37.426Z,15.68
2022-10-25T15:50:22.793Z,15.66
2022-10-25T15:52:59.274Z,15.62
2022-10-25T15:55:35.023Z,15.58
2022-10-25T15:58:11.397Z,15.55
2022-10-25T16:00:48.528Z,15.54
2022-10-25T16:03:27.487Z,15.53
2022-10-25T16:06:03.325Z,15.50
2022-10-25T16:08:39.180Z,15.46
2022-10-25T16:11:21.304Z,15.40
2022-10-25T16:13:57.909Z,15.37
2022-10-25T16:16:40.275Z,15.35
2022-10-25T16:19:21.643Z,15.29
2022-10-25T16:21:57.448Z,15.27
2022-10-25T16:24:33.328Z,15.24
2022-10-25T16:27:11.115Z,15.22
2022-10-25T16:29:47.227Z,15.17
2022-10-25T16:32:23.242Z,15.12
2022-10-25T16:34:59.038Z,15.03
2022-10-25T16:37:34.818Z,14.95
2022-10-25T16:40:17.235Z,14.90
2022-10-25T16:42:53.175Z,14.84
2022-10-25T16:45:34.389Z,14.79
2022-10-25T16:48:11.168Z,14.72
2022-10-25T16:50:47.695Z,14.67
2022-10-25T16:53:23.508Z,14.63
2022-10-25T16:55:59.643Z,14.59
2022-10-25T16:58:36.110Z,14.56
2022-10-25T17:01:27.176Z,14.52
2022-10-25T17:04:04.091Z,14.47
2022-10-25T17:06:42.044Z,14.43
2022-10-25T17:09:19.035Z,14.39
2022-10-25T17:11:54.929Z,14.36
2022-10-25T17:14:30.889Z,14.35
2022-10-25T17:17:06.976Z,14.33
2022-10-25T17:19:42.914Z,14.33
2022-10-25T17:22:20.311Z,14.32
2022-10-25T17:24:56.142Z,14.31
2022-10-25T17:27:32.611Z,14.31
2022-10-25T17:30:10.568Z,14.32
2022-10-25T17:32:47.036Z,14.30
2022-10-25T17:35:28.494Z,14.29
2022-10-25T17:38:10.279Z,14.28
2022-10-25T17:40:48.504Z,14.25
2022-10-25T17:43:24.203Z,14.20
2022-10-25T17:46:06.224Z,14.15
2022-10-25T17:48:42.118Z,14.11
2022-10-25T17:51:19.831Z,14.06
2022-10-25T17:53:58.796Z,14.00
2022-10-25T17:56:36.079Z,13.93
2022-10-25T17:59:12.151Z,13.85
2022-10-25T18:01:48.267Z,13.75
2022-10-25T18:27:18.285Z,12.78
2022-10-25T18:29:54.010Z,12.78
2022-10-25T18:32:33.736Z,12.74
2022-10-25T18:35:13.788Z,12.71
2022-10-25T18:37:50.033Z,12.68
2022-10-25T18:40:26.642Z,12.65
2022-10-25T18:43:04.477Z,12.62
2022-10-25T18:45:44.725Z,12.61
2022-10-25T18:48:21.602Z,12.60
2022-10-25T18:50:57.739Z,12.58
2022-10-25T18:53:35.726Z,12.55
2022-10-25T18:56:19.561Z,12.52
2022-10-25T18:59:00.081Z,12.50
2022-10-25T19:01:37.788Z,12.46
2022-10-25T19:04:13.917Z,12.43
2022-10-25T19:06:49.698Z,12.38
2022-10-25T19:09:25.687Z,12.35
2022-10-25T19:12:02.013Z,12.33
2022-10-25T19:14:38.025Z,12.30
2022-10-25T19:17:13.977Z,12.28
2022-10-25T19:19:50.168Z,12.26
2022-10-25T19:22:26.130Z,12.22
2022-10-25T19:25:02.733Z,12.23
2022-10-25T19:27:38.855Z,12.23
2022-10-25T19:30:17.039Z,12.23
2022-10-25T19:32:53.145Z,12.23
2022-10-25T19:35:28.933Z,12.26
2022-10-25T19:38:05.888Z,12.30
2022-10-25T19:40:44.903Z,12.32
2022-10-25T19:43:20.869Z,12.35
2022-10-25T19:46:01.030Z,12.38
2022-10-25T19:48:38.384Z,12.40
2022-10-25T19:51:18.400Z,12.43
2022-10-25T19:53:54.690Z,12.46
2022-10-25T19:56:31.242Z,12.47
2022-10-25T19:59:07.599Z,12.49
2022-10-25T20:01:46.099Z,12.51
2022-10-25T20:04:22.614Z,12.54
2022-10-25T20:06:58.615Z,12.55
2022-10-25T20:09:34.467Z,12.56
2022-10-25T20:12:11.743Z,12.54
2022-10-25T20:14:47.492Z,12.51
2022-10-25T20:17:23.319Z,12.48
2022-10-25T20:19:59.175Z,12.45
2022-10-25T20:22:38.103Z,12.43
2022-10-25T20:27:51.603Z,12.38
2022-10-25T20:30:27.811Z,12.36
2022-10-25T20:33:03.997Z,12.33
2022-10-25T20:35:44.712Z,12.31
2022-10-25T20:38:20.490Z,12.28
2022-10-25T20:40:56.393Z,12.26
2022-10-25T20:43:32.497Z,12.23
2022-10-25T20:46:09.305Z,12.20
2022-10-25T20:48:46.719Z,12.19
2022-10-25T20:51:23.082Z,12.16
2022-10-25T20:53:59.369Z,12.12
2022-10-25T20:56:37.326Z,12.12
2022-10-25T20:59:13.261Z,12.11
2022-10-25T21:01:49.117Z,12.12
2022-10-25T21:04:30.553Z,12.12
2022-10-25T21:07:17.920Z,12.10
2022-10-25T21:09:56.802Z,12.10
2022-10-25T21:12:32.536Z,12.09
2022-10-25T21:15:12.102Z,12.04
2022-10-25T21:17:52.344Z,11.95
2022-10-25T21:20:28.941Z,11.91
2022-10-25T21:23:04.706Z,11.88
2022-10-25T21:25:40.446Z,11.81
2022-10-25T21:28:16.701Z,11.74
2022-10-25T21:30:52.474Z,11.69
2022-10-25T21:33:28.328Z,11.64
2022-10-25T21:36:12.701Z,11.58
2022-10-25T21:38:48.838Z,11.52
2022-10-25T21:41:27.606Z,11.43
2022-10-25T21:44:03.871Z,11.36
2022-10-25T21:46:39.603Z,11.29
2022-10-25T21:49:15.553Z,11.23
2022-10-25T21:51:51.372Z,11.15
2022-10-25T21:54:27.135Z,11.08
2022-10-25T21:57:03.007Z,11.01
2022-10-25T21:59:38.848Z,10.94
2022-10-25T22:02:14.735Z,10.88
2022-10-25T22:04:50.635Z,10.82
2022-10-25T22:07:26.273Z,10.74
2022-10-25T22:10:01.973Z,10.68
2022-10-25T22:12:37.504Z,10.65
2022-10-25T22:15:14.380Z,10.62
2022-10-25T22:17:50.182Z,10.60
2022-10-25T22:20:26.019Z,10.58
2022-10-25T22:23:01.750Z,10.59
2022-10-25T22:25:38.125Z,10.60
2022-10-25T22:28:13.800Z,10.60
2022-10-25T22:30:49.546Z,10.63
2022-10-25T22:33:25.463Z,10.66
2022-10-25T22:36:06.881Z,10.69
2022-10-25T22:38:43.187Z,10.73
2022-10-25T22:41:21.534Z,10.77
2022-10-25T22:43:57.487Z,10.80
2022-10-25T22:46:36.324Z,10.84
2022-10-25T22:49:13.462Z,10.87
2022-10-25T22:51:49.110Z,10.88
2022-10-25T22:54:25.015Z,10.87
2022-10-25T22:57:00.885Z,10.81
2022-10-25T22:59:36.666Z,10.79
2022-10-25T23:02:12.454Z,10.78
2022-10-25T23:04:48.132Z,10.74
2022-10-25T23:07:23.952Z,10.67
2022-10-25T23:09:59.854Z,10.64
2022-10-25T23:12:35.764Z,10.60
2022-10-25T23:15:13.908Z,10.57
2022-10-25T23:17:49.731Z,10.52
2022-10-25T23:20:25.416Z,10.46
2022-10-25T23:23:01.080Z,10.40
2022-10-25T23:25:38.377Z,10.34
2022-10-25T23:28:14.283Z,10.25
2022-10-25T23:30:50.050Z,10.21
2022-10-25T23:33:25.975Z,10.17
2022-10-25T23:36:06.212Z,10.16
2022-10-25T23:38:42.404Z,10.16
2022-10-25T23:41:20.166Z,10.17
2022-10-25T23:43:55.867Z,10.13
2022-10-25T23:46:31.692Z,10.10
2022-10-25T23:49:07.582Z,10.11
2022-10-25T23:51:43.435Z,10.13
2022-10-25T23:54:19.218Z,10.13
2022-10-25T23:56:54.975Z,10.11
2022-10-25T23:59:30.637Z,10.12
